createdAt,value
2017-08-11T00:01:56.393Z,11.50
2017-08-11T00:04:30.466Z,11.40
2017-08-11T00:07:05.350Z,11.40
2017-08-11T00:09:33.174Z,11.40
2017-08-11T00:12:02.422Z,11.30
2017-08-11T00:14:31.546Z,11.30
2017-08-11T00:17:01.047Z,11.30
2017-08-11T00:19:30.278Z,11.30
2017-08-11T00:22:00.245Z,11.30
2017-08-11T00:24:29.611Z,11.20
2017-08-11T00:26:57.793Z,11.20
2017-08-11T00:29:27.949Z,11.20
2017-08-11T00:31:56.390Z,11.20
2017-08-11T00:34:27.944Z,11.20
2017-08-11T00:36:57.488Z,11.20
2017-08-11T00:39:27.521Z,11.20
2017-08-11T00:41:57.052Z,11.30
2017-08-11T00:44:26.955Z,11.20
2017-08-11T00:47:02.106Z,11.30
2017-08-11T00:49:30.677Z,11.30
2017-08-11T00:52:01.035Z,11.30
2017-08-11T00:54:31.088Z,11.30
2017-08-11T00:56:59.935Z,11.30
2017-08-11T00:59:29.647Z,11.40
2017-08-11T01:01:59.099Z,11.30
2017-08-11T01:04:28.643Z,11.30
2017-08-11T01:06:58.718Z,11.30
2017-08-11T01:09:29.860Z,11.30
2017-08-11T01:14:34.274Z,11.40
2017-08-11T01:17:03.921Z,11.40
2017-08-11T01:19:33.962Z,11.50
2017-08-11T01:22:03.112Z,11.40
2017-08-11T01:24:31.470Z,11.40
2017-08-11T01:27:00.658Z,11.30
2017-08-11T01:29:30.841Z,11.30
2017-08-11T01:32:02.419Z,11.40
2017-08-11T01:34:33.954Z,11.60
2017-08-11T01:37:04.125Z,11.50
2017-08-11T01:39:33.641Z,11.50
2017-08-11T01:42:04.652Z,11.50
2017-08-11T01:44:34.170Z,11.50
2017-08-11T01:47:04.081Z,11.50
2017-08-11T01:49:40.896Z,11.50
2017-08-11T01:52:09.667Z,11.40
2017-08-11T01:54:37.294Z,11.40
2017-08-11T01:57:05.285Z,11.50
2017-08-11T01:59:35.034Z,11.50
2017-08-11T02:02:04.948Z,11.50
2017-08-11T02:04:33.652Z,11.50
2017-08-11T02:07:05.656Z,11.60
2017-08-11T02:09:35.073Z,11.60
2017-08-11T02:12:05.789Z,11.60
2017-08-11T02:14:35.031Z,11.50
2017-08-11T02:17:04.204Z,11.50
2017-08-11T02:19:32.629Z,11.50
2017-08-11T02:22:03.368Z,11.50
2017-08-11T02:24:35.127Z,11.60
2017-08-11T02:27:04.040Z,11.60
2017-08-11T02:29:39.740Z,11.70
2017-08-11T02:32:09.318Z,11.60
2017-08-11T02:34:36.904Z,11.70
2017-08-11T02:37:06.170Z,11.70
2017-08-11T02:39:36.251Z,11.70
2017-08-11T02:42:06.277Z,11.70
2017-08-11T02:44:36.425Z,11.70
2017-08-11T02:47:05.801Z,11.70
2017-08-11T02:49:35.193Z,11.70
2017-08-11T02:52:04.804Z,11.80
2017-08-11T02:54:43.772Z,11.80
2017-08-11T02:57:11.573Z,11.70
2017-08-11T02:59:40.401Z,11.70
2017-08-11T03:04:52.855Z,11.80
2017-08-11T03:07:32.505Z,11.80
2017-08-11T03:10:05.007Z,11.70
2017-08-11T03:12:35.427Z,11.70
2017-08-11T03:15:04.421Z,11.70
2017-08-11T03:17:34.528Z,11.80
2017-08-11T03:20:08.050Z,11.90
2017-08-11T03:22:36.367Z,11.90
2017-08-11T03:25:06.588Z,11.90
2017-08-11T03:27:35.642Z,11.90
2017-08-11T03:30:06.570Z,11.80
2017-08-11T03:32:44.559Z,11.80
2017-08-11T03:35:12.358Z,11.80
2017-08-11T03:37:40.018Z,11.80
2017-08-11T03:40:07.632Z,11.80
2017-08-11T03:42:36.091Z,11.70
2017-08-11T03:45:06.063Z,11.70
2017-08-11T03:47:38.186Z,11.80
2017-08-11T03:50:06.066Z,11.80
2017-08-11T03:52:38.442Z,11.80
2017-08-11T03:55:06.093Z,11.80
2017-08-11T03:57:34.647Z,11.80
2017-08-11T04:00:04.855Z,11.80
2017-08-11T04:02:35.458Z,11.80
2017-08-11T04:05:04.999Z,11.80
2017-08-11T04:07:35.360Z,11.80
2017-08-11T04:10:04.901Z,11.80
2017-08-11T04:12:38.365Z,11.80
2017-08-11T04:15:06.145Z,11.90
2017-08-11T04:17:33.814Z,11.90
2017-08-11T04:20:04.669Z,12.00
2017-08-11T04:22:35.387Z,12.00
2017-08-11T04:25:04.981Z,11.90
2017-08-11T04:27:34.804Z,11.90
2017-08-11T04:30:04.941Z,11.90
2017-08-11T04:32:35.232Z,12.00
2017-08-11T04:35:05.438Z,11.90
2017-08-11T04:37:35.478Z,12.00
2017-08-11T04:40:04.987Z,11.90
2017-08-11T04:42:35.112Z,11.90
2017-08-11T04:45:04.508Z,11.90
2017-08-11T04:47:34.641Z,12.00
2017-08-11T04:50:04.020Z,12.00
2017-08-11T04:52:33.524Z,12.00
2017-08-11T04:55:03.259Z,12.20
2017-08-11T04:57:34.604Z,12.10
2017-08-11T05:00:04.554Z,12.10
2017-08-11T05:02:35.251Z,12.00
2017-08-11T05:05:04.069Z,12.00
2017-08-11T05:07:34.484Z,12.10
2017-08-11T05:10:04.876Z,12.10
2017-08-11T05:12:35.218Z,12.10
2017-08-11T05:15:04.293Z,12.10
2017-08-11T05:17:33.888Z,12.10
2017-08-11T05:20:03.492Z,12.10
2017-08-11T05:22:33.104Z,12.20
2017-08-11T05:25:02.474Z,12.30
2017-08-11T05:27:32.786Z,12.30
2017-08-11T05:30:01.256Z,12.30
2017-08-11T05:32:31.124Z,12.30
2017-08-11T05:35:00.873Z,12.30
2017-08-11T05:37:30.430Z,12.40
2017-08-11T05:39:59.114Z,12.40
2017-08-11T05:42:28.030Z,12.40
2017-08-11T05:44:57.725Z,12.40
2017-08-11T05:47:28.667Z,12.30
2017-08-11T05:50:00.256Z,12.40
2017-08-11T05:52:30.661Z,12.50
2017-08-11T05:55:01.987Z,12.70
2017-08-11T05:57:32.691Z,12.70
2017-08-11T06:00:01.861Z,12.90
2017-08-11T06:02:30.746Z,12.90
2017-08-11T06:05:05.407Z,12.90
2017-08-11T06:07:34.251Z,13.00
2017-08-11T06:10:02.625Z,13.10
2017-08-11T06:12:31.908Z,13.30
2017-08-11T06:15:00.219Z,13.40
2017-08-11T06:17:28.964Z,13.50
2017-08-11T06:19:57.948Z,13.70
2017-08-11T06:22:26.459Z,13.80
2017-08-11T06:24:55.070Z,13.90
2017-08-11T06:27:23.988Z,14.00
2017-08-11T06:29:51.899Z,14.10
2017-08-11T06:32:20.695Z,14.10
2017-08-11T06:34:48.505Z,14.20
2017-08-11T06:37:16.190Z,14.30
2017-08-11T06:39:43.797Z,14.40
2017-08-11T06:42:11.423Z,14.50
2017-08-11T06:44:39.078Z,14.60
2017-08-11T06:47:06.678Z,14.60
2017-08-11T06:49:34.345Z,14.70
2017-08-11T06:52:01.945Z,14.80
2017-08-11T06:54:29.606Z,14.80
2017-08-11T06:56:57.354Z,14.90
2017-08-11T06:59:25.051Z,14.80
2017-08-11T07:01:53.091Z,14.90
2017-08-11T07:04:21.196Z,15.10
2017-08-11T07:06:48.965Z,15.00
2017-08-11T07:09:16.700Z,15.00
2017-08-11T07:11:44.318Z,15.00
2017-08-11T07:14:11.926Z,15.20
2017-08-11T07:16:39.589Z,15.30
2017-08-11T07:19:07.196Z,15.40
2017-08-11T07:21:34.847Z,15.50
2017-08-11T07:24:02.454Z,15.60
2017-08-11T07:26:30.131Z,15.80
2017-08-11T07:28:57.846Z,16.00
2017-08-11T07:31:25.539Z,16.20
2017-08-11T07:33:53.281Z,16.40
2017-08-11T07:36:21.035Z,16.40
2017-08-11T07:38:48.686Z,16.40
2017-08-11T07:41:16.375Z,16.30
2017-08-11T07:43:43.972Z,16.20
2017-08-11T07:46:11.604Z,16.20
2017-08-11T07:48:39.223Z,16.30
2017-08-11T07:51:06.872Z,16.20
2017-08-11T07:53:35.688Z,16.10
2017-08-11T07:56:03.335Z,16.20
2017-08-11T07:58:31.137Z,16.30
2017-08-11T08:00:58.780Z,16.30
2017-08-11T08:03:26.432Z,16.20
2017-08-11T08:05:54.118Z,16.30
2017-08-11T08:08:21.877Z,16.00
2017-08-11T08:10:49.770Z,16.00
2017-08-11T08:13:17.345Z,15.90
2017-08-11T08:15:45.926Z,15.80
2017-08-11T08:18:13.539Z,16.00
2017-08-11T08:20:41.173Z,15.80
2017-08-11T08:23:08.767Z,15.70
2017-08-11T08:25:36.438Z,15.90
2017-08-11T08:28:04.040Z,15.80
2017-08-11T08:30:31.636Z,16.00
2017-08-11T08:32:59.315Z,16.10
2017-08-11T08:35:26.977Z,16.30
2017-08-11T08:37:54.660Z,16.30
2017-08-11T08:40:22.299Z,16.40
2017-08-11T08:42:50.008Z,16.30
2017-08-11T08:45:17.636Z,16.20
2017-08-11T08:47:45.293Z,16.10
2017-08-11T08:50:12.887Z,16.00
2017-08-11T08:52:40.544Z,16.10
2017-08-11T08:55:08.168Z,16.10
2017-08-11T08:57:36.453Z,16.10
2017-08-11T09:00:04.064Z,16.30
2017-08-11T09:02:31.803Z,16.30
2017-08-11T09:04:59.424Z,16.30
2017-08-11T09:07:27.131Z,16.30
2017-08-11T09:09:54.749Z,16.40
2017-08-11T09:12:22.412Z,16.20
2017-08-11T09:14:50.072Z,16.30
2017-08-11T09:17:17.916Z,16.40
2017-08-11T09:19:45.921Z,16.40
2017-08-11T09:22:13.800Z,16.60
2017-08-11T09:24:53.168Z,16.80
2017-08-11T09:27:32.631Z,16.80
2017-08-11T09:30:12.026Z,16.90
2017-08-11T09:33:00.251Z,17.10
2017-08-11T09:35:39.548Z,17.20
2017-08-11T09:38:07.226Z,17.20
2017-08-11T09:40:37.762Z,17.20
2017-08-11T09:43:05.454Z,17.20
2017-08-11T09:45:33.046Z,17.00
2017-08-11T09:48:00.619Z,16.80
2017-08-11T09:50:28.271Z,16.70
2017-08-11T09:52:56.188Z,16.70
2017-08-11T09:55:24.055Z,16.80
2017-08-11T09:57:51.726Z,16.90
2017-08-11T10:00:19.515Z,17.00
2017-08-11T10:02:47.095Z,17.10
2017-08-11T10:05:14.916Z,17.10
2017-08-11T10:07:42.472Z,17.10
2017-08-11T10:10:10.104Z,17.20
2017-08-11T10:12:37.708Z,17.10
2017-08-11T10:15:05.323Z,17.10
2017-08-11T10:17:33.008Z,17.20
2017-08-11T10:20:00.938Z,17.30
2017-08-11T10:22:28.477Z,17.40
2017-08-11T10:24:56.118Z,17.30
2017-08-11T10:27:23.711Z,17.40
2017-08-11T10:29:51.324Z,17.40
2017-08-11T10:32:19.071Z,17.30
2017-08-11T10:34:46.636Z,17.20
2017-08-11T10:37:14.163Z,17.20
2017-08-11T10:39:41.849Z,17.20
2017-08-11T10:42:09.414Z,17.20
2017-08-11T10:44:37.015Z,17.20
2017-08-11T10:47:04.576Z,17.20
2017-08-11T10:49:32.224Z,17.20
2017-08-11T10:51:59.830Z,17.20
2017-08-11T10:54:27.550Z,17.20
2017-08-11T10:56:55.174Z,17.10
2017-08-11T10:59:22.853Z,17.10
2017-08-11T11:01:51.455Z,17.10
2017-08-11T11:04:19.182Z,17.00
2017-08-11T11:06:46.871Z,16.90
2017-08-11T11:09:14.458Z,17.00
2017-08-11T11:11:42.020Z,16.60
2017-08-11T11:14:09.581Z,16.40
2017-08-11T11:16:37.224Z,16.10
2017-08-11T11:19:04.774Z,16.10
2017-08-11T11:21:32.382Z,16.00
2017-08-11T11:24:00.066Z,16.10
2017-08-11T11:26:27.753Z,16.10
2017-08-11T11:28:55.346Z,16.00
2017-08-11T11:31:23.099Z,16.00
2017-08-11T11:33:52.520Z,16.00
2017-08-11T11:36:20.974Z,16.00
2017-08-11T11:38:49.191Z,16.00
2017-08-11T11:41:16.822Z,15.90
2017-08-11T11:43:44.455Z,15.90
2017-08-11T11:46:12.087Z,15.80
2017-08-11T11:48:39.744Z,15.90
2017-08-11T11:51:07.350Z,15.90
2017-08-11T11:53:34.991Z,15.80
2017-08-11T11:56:02.608Z,15.80
2017-08-11T11:58:30.258Z,15.70
2017-08-11T12:00:57.927Z,15.80
2017-08-11T12:03:25.590Z,15.80
2017-08-11T12:05:53.197Z,16.00
2017-08-11T12:08:20.892Z,16.10
2017-08-11T12:10:48.541Z,16.30
2017-08-11T12:13:16.334Z,16.40
2017-08-11T12:15:43.947Z,16.50
2017-08-11T12:18:11.596Z,16.50
2017-08-11T12:20:39.199Z,16.50
2017-08-11T12:23:06.837Z,16.70
2017-08-11T12:25:34.429Z,16.70
2017-08-11T12:28:02.089Z,16.70
2017-08-11T12:30:29.690Z,16.70
2017-08-11T12:32:57.319Z,16.80
2017-08-11T12:35:24.952Z,16.70
2017-08-11T12:37:52.635Z,16.70
2017-08-11T12:40:20.248Z,16.80
2017-08-11T12:42:48.715Z,16.90
2017-08-11T12:45:16.349Z,17.00
2017-08-11T12:47:43.960Z,17.10
2017-08-11T12:50:11.576Z,17.20
2017-08-11T12:52:39.170Z,17.30
2017-08-11T12:55:06.818Z,17.40
2017-08-11T12:57:34.419Z,17.50
2017-08-11T13:00:02.076Z,17.50
2017-08-11T13:02:29.693Z,17.60
2017-08-11T13:04:57.909Z,17.60
2017-08-11T13:07:25.584Z,17.70
2017-08-11T13:09:53.210Z,17.70
2017-08-11T13:12:20.904Z,17.70
2017-08-11T13:14:48.524Z,17.80
2017-08-11T13:17:16.169Z,17.90
2017-08-11T13:19:43.790Z,17.80
2017-08-11T13:22:11.408Z,17.70
2017-08-11T13:24:39.010Z,17.60
2017-08-11T13:27:06.674Z,17.60
2017-08-11T13:29:34.296Z,17.60
2017-08-11T13:32:01.957Z,17.70
2017-08-11T13:34:29.558Z,17.80
2017-08-11T13:36:57.214Z,17.90
2017-08-11T13:39:24.865Z,18.00
2017-08-11T13:41:52.505Z,17.90
2017-08-11T13:44:20.195Z,18.00
2017-08-11T13:46:47.810Z,18.10
2017-08-11T13:49:15.467Z,18.20
2017-08-11T13:51:43.089Z,18.20
2017-08-11T13:54:10.734Z,18.20
2017-08-11T13:56:38.329Z,18.20
2017-08-11T13:59:05.976Z,18.20
2017-08-11T14:01:34.337Z,18.20
2017-08-11T14:04:01.967Z,18.10
2017-08-11T14:06:29.541Z,18.10
2017-08-11T14:08:57.193Z,18.20
2017-08-11T14:11:24.776Z,18.30
2017-08-11T14:13:52.684Z,18.40
2017-08-11T14:16:20.349Z,18.40
2017-08-11T14:18:48.053Z,18.40
2017-08-11T14:21:15.677Z,18.40
2017-08-11T14:24:02.949Z,18.30
2017-08-11T14:26:31.191Z,18.30
2017-08-11T14:28:58.950Z,18.30
2017-08-11T14:31:26.646Z,18.20
2017-08-11T14:33:54.442Z,18.10
2017-08-11T14:36:24.817Z,18.10
2017-08-11T14:38:52.665Z,18.10
2017-08-11T14:41:20.345Z,18.20
2017-08-11T14:43:48.019Z,18.20
2017-08-11T14:46:16.029Z,18.20
2017-08-11T14:48:43.609Z,18.10
2017-08-11T14:51:11.248Z,18.20
2017-08-11T14:53:38.871Z,18.10
2017-08-11T14:56:06.521Z,18.00
2017-08-11T14:58:34.114Z,17.90
2017-08-11T15:01:01.771Z,17.80
2017-08-11T15:03:29.357Z,17.90
2017-08-11T15:05:57.043Z,17.90
2017-08-11T15:08:24.621Z,17.80
2017-08-11T15:10:59.125Z,17.70
2017-08-11T15:13:26.764Z,17.70
2017-08-11T15:15:54.421Z,17.60
2017-08-11T15:18:22.089Z,17.60
2017-08-11T15:20:49.828Z,17.50
2017-08-11T15:23:31.502Z,17.40
2017-08-11T15:25:59.142Z,17.40
2017-08-11T15:28:26.866Z,17.40
2017-08-11T15:30:54.544Z,17.40
2017-08-11T15:33:22.246Z,17.40
2017-08-11T15:35:51.043Z,17.50
2017-08-11T15:38:18.787Z,17.50
2017-08-11T15:40:47.202Z,17.60
2017-08-11T15:43:14.910Z,17.60
2017-08-11T15:45:42.533Z,17.70
2017-08-11T15:48:10.187Z,17.90
2017-08-11T15:50:37.798Z,18.20
2017-08-11T15:53:05.431Z,18.50
2017-08-11T15:55:33.054Z,18.90
2017-08-11T15:58:00.691Z,19.20
2017-08-11T16:00:28.312Z,19.40
2017-08-11T16:02:55.954Z,19.60
2017-08-11T16:05:23.569Z,19.70
2017-08-11T16:07:51.290Z,19.90
2017-08-11T16:10:18.897Z,19.90
2017-08-11T16:12:46.565Z,20.20
2017-08-11T16:15:14.158Z,20.40
2017-08-11T16:17:41.788Z,20.50
2017-08-11T16:20:09.368Z,20.60
2017-08-11T16:22:37.574Z,20.60
2017-08-11T16:25:05.153Z,20.50
2017-08-11T16:27:32.799Z,20.40
2017-08-11T16:30:00.378Z,20.20
2017-08-11T16:35:20.515Z,19.70
2017-08-11T16:37:48.174Z,19.50
2017-08-11T16:40:15.792Z,19.40
2017-08-11T16:42:43.453Z,19.10
2017-08-11T16:45:11.055Z,18.90
2017-08-11T16:47:38.669Z,18.70
2017-08-11T16:50:06.308Z,18.50
2017-08-11T16:52:33.888Z,18.30
2017-08-11T16:55:01.556Z,18.20
2017-08-11T16:57:29.143Z,18.10
2017-08-11T16:59:56.791Z,18.00
2017-08-11T17:02:24.434Z,17.90
2017-08-11T17:04:52.099Z,18.00
2017-08-11T17:07:19.727Z,18.00
2017-08-11T17:09:47.541Z,17.80
2017-08-11T17:12:15.128Z,17.90
2017-08-11T17:14:42.748Z,17.80
2017-08-11T17:17:11.277Z,17.70
2017-08-11T17:19:38.888Z,17.50
2017-08-11T17:22:06.486Z,17.40
2017-08-11T17:24:34.097Z,17.40
2017-08-11T17:27:01.703Z,17.30
2017-08-11T17:29:29.377Z,17.10
2017-08-11T17:31:57.056Z,17.10
2017-08-11T17:34:25.368Z,17.00
2017-08-11T17:36:52.968Z,16.80
2017-08-11T17:39:21.145Z,16.80
2017-08-11T17:41:49.887Z,16.80
2017-08-11T17:44:17.642Z,16.80
2017-08-11T17:46:47.954Z,16.70
2017-08-11T17:49:15.624Z,16.60
2017-08-11T17:51:43.631Z,16.60
2017-08-11T17:54:11.342Z,16.30
2017-08-11T17:56:39.064Z,16.40
2017-08-11T17:59:06.673Z,16.30
2017-08-11T18:01:34.842Z,16.20
2017-08-11T18:04:02.624Z,16.20
2017-08-11T18:06:30.629Z,16.20
2017-08-11T18:08:58.296Z,16.10
2017-08-11T18:11:26.588Z,16.10
2017-08-11T18:13:54.564Z,15.90
2017-08-11T18:16:22.395Z,15.80
2017-08-11T18:18:50.043Z,15.70
2017-08-11T18:21:17.717Z,15.70
2017-08-11T18:23:45.248Z,15.60
2017-08-11T18:26:12.807Z,15.70
2017-08-11T18:28:40.396Z,15.70
2017-08-11T18:31:08.056Z,15.70
2017-08-11T18:33:35.682Z,15.70
2017-08-11T18:36:03.250Z,15.70
2017-08-11T18:38:30.795Z,15.60
2017-08-11T18:40:58.422Z,15.40
2017-08-11T18:43:26.057Z,15.30
2017-08-11T18:45:53.808Z,15.30
2017-08-11T18:48:21.535Z,15.30
2017-08-11T18:50:49.262Z,15.20
2017-08-11T18:53:17.071Z,15.20
2017-08-11T18:55:44.753Z,15.20
2017-08-11T18:58:12.372Z,15.30
2017-08-11T19:00:40.011Z,15.30
2017-08-11T19:03:07.544Z,15.10
2017-08-11T19:05:35.117Z,15.10
2017-08-11T19:08:02.711Z,15.10
2017-08-11T19:10:30.314Z,15.10
2017-08-11T19:12:57.949Z,15.10
2017-08-11T19:15:25.635Z,15.10
2017-08-11T19:17:53.296Z,15.20
2017-08-11T19:20:21.102Z,15.10
2017-08-11T19:22:48.725Z,15.10
2017-08-11T19:25:16.343Z,15.10
2017-08-11T19:27:43.880Z,15.10
2017-08-11T19:30:11.477Z,15.00
2017-08-11T19:32:39.046Z,15.00
2017-08-11T19:35:06.650Z,15.10
2017-08-11T19:37:34.323Z,15.00
2017-08-11T19:40:01.973Z,14.90
2017-08-11T19:42:29.648Z,15.00
2017-08-11T19:44:57.378Z,15.00
2017-08-11T19:47:25.105Z,14.90
2017-08-11T19:49:52.745Z,14.80
2017-08-11T19:52:20.549Z,14.80
2017-08-11T19:54:48.179Z,14.80
2017-08-11T19:57:15.747Z,14.70
2017-08-11T19:59:43.288Z,14.80
2017-08-11T20:02:10.919Z,14.70
2017-08-11T20:04:38.496Z,14.80
2017-08-11T20:07:06.108Z,14.70
2017-08-11T20:09:33.694Z,14.70
2017-08-11T20:12:01.280Z,14.60
2017-08-11T20:14:28.949Z,14.70
2017-08-11T20:16:56.592Z,14.70
2017-08-11T20:19:24.375Z,14.70
2017-08-11T20:21:52.960Z,14.70
2017-08-11T20:24:20.711Z,14.70
2017-08-11T20:26:49.089Z,14.60
2017-08-11T20:29:16.740Z,14.60
2017-08-11T20:31:44.342Z,14.60
2017-08-11T20:34:11.911Z,14.60
2017-08-11T20:36:39.489Z,14.60
2017-08-11T20:39:07.154Z,14.70
2017-08-11T20:41:34.755Z,14.60
2017-08-11T20:44:02.424Z,14.60
2017-08-11T20:46:30.035Z,14.60
2017-08-11T20:48:57.724Z,14.50
2017-08-11T20:51:25.387Z,14.60
2017-08-11T20:53:53.145Z,14.50
2017-08-11T20:56:20.803Z,14.60
2017-08-11T20:58:48.473Z,14.60
2017-08-11T21:01:16.181Z,14.70
2017-08-11T21:03:43.744Z,14.60
2017-08-11T21:06:11.350Z,14.60
2017-08-11T21:08:38.995Z,14.60
2017-08-11T21:11:06.599Z,14.60
2017-08-11T21:13:34.173Z,14.60
2017-08-11T21:16:01.788Z,14.60
2017-08-11T21:18:29.437Z,14.60
2017-08-11T21:20:57.057Z,14.60
2017-08-11T21:23:24.811Z,14.60
2017-08-11T21:25:52.759Z,14.50
2017-08-11T21:28:20.515Z,14.60
2017-08-11T21:30:48.115Z,14.60
2017-08-11T21:33:15.762Z,14.70
2017-08-11T21:35:43.366Z,14.60
2017-08-11T21:38:11.017Z,14.50
2017-08-11T21:40:38.614Z,14.60
2017-08-11T21:43:06.152Z,14.60
2017-08-11T21:45:33.813Z,14.60
2017-08-11T21:48:01.384Z,14.60
2017-08-11T21:50:28.939Z,14.70
2017-08-11T21:52:56.569Z,14.60
2017-08-11T21:55:24.332Z,14.70
2017-08-11T21:57:52.157Z,14.60
2017-08-11T22:00:19.921Z,14.60
2017-08-11T22:02:47.542Z,14.60
2017-08-11T22:05:15.204Z,14.70
2017-08-11T22:07:42.784Z,14.60
2017-08-11T22:10:10.424Z,14.60
2017-08-11T22:12:38.032Z,14.60
2017-08-11T22:15:05.678Z,14.60
2017-08-11T22:17:33.235Z,14.50
2017-08-11T22:20:00.874Z,14.50
2017-08-11T22:22:28.530Z,14.50
2017-08-11T22:24:56.150Z,14.50
2017-08-11T22:27:23.815Z,14.40
2017-08-11T22:29:51.611Z,14.40
2017-08-11T22:32:19.260Z,14.40
2017-08-11T22:34:46.921Z,14.40
2017-08-11T22:37:14.506Z,14.40
2017-08-11T22:39:42.120Z,14.40
2017-08-11T22:42:09.739Z,14.40
2017-08-11T22:44:37.414Z,14.50
2017-08-11T22:47:05.025Z,14.40
2017-08-11T22:49:32.616Z,14.40
2017-08-11T22:52:00.273Z,14.40
2017-08-11T22:54:27.939Z,14.40
2017-08-11T22:56:55.530Z,14.50
2017-08-11T22:59:23.224Z,14.40
2017-08-11T23:01:50.969Z,14.40
2017-08-11T23:04:18.628Z,14.40
2017-08-11T23:06:46.304Z,14.40
2017-08-11T23:09:13.840Z,14.40
2017-08-11T23:11:41.477Z,14.40
2017-08-11T23:14:09.079Z,14.40
2017-08-11T23:16:36.712Z,14.40
2017-08-11T23:19:04.305Z,14.50
2017-08-11T23:21:32.004Z,14.40
2017-08-11T23:23:59.650Z,14.30
2017-08-11T23:26:27.264Z,14.30
2017-08-11T23:28:54.891Z,14.30
2017-08-11T23:31:22.639Z,14.40
2017-08-11T23:33:50.332Z,14.40
2017-08-11T23:36:18.004Z,14.40
2017-08-11T23:38:45.577Z,14.50
2017-08-11T23:41:13.246Z,14.50
2017-08-11T23:43:40.837Z,14.40
2017-08-11T23:46:08.492Z,14.50
2017-08-11T23:48:36.097Z,14.40
2017-08-11T23:51:03.748Z,14.40
2017-08-11T23:53:31.278Z,14.40
2017-08-11T23:55:58.872Z,14.50
2017-08-11T23:58:26.514Z,14.50
